Time;durP1;ratioP1;P1;durP2;ratioP2;P2;SDS_P1;SDS_P2;PMS_P1;PMS_P2;Temp;Humidity;BMP_temperature;BMP_pressure;BME280_temperature;BME280_humidity;BME280_pressure;Samples;Min_cycle;Max_cycle;Signal;HPM_P1;HPM_P2
2023/06/19 00:00:59;;;;;;;7.35;6.18;;;;;;;;;;5052637;28;20110;-67
2023/06/19 00:03:24;;;;;;;6.95;6.28;;;;;;;;;;5052780;28;20480;-67
2023/06/19 00:05:49;;;;;;;6.10;5.53;;;;;;;;;;5053004;28;20044;-69
2023/06/19 00:08:15;;;;;;;5.90;5.43;;;;;;;;;;5051714;28;20084;-69
2023/06/19 00:10:40;;;;;;;6.70;5.70;;;;;;;;;;5052283;28;20091;-69
2023/06/19 00:13:05;;;;;;;5.72;5.32;;;;;;;;;;5033748;28;20029;-68
2023/06/19 00:15:31;;;;;;;6.03;5.43;;;;;;;;;;5051987;28;20108;-68
2023/06/19 00:17:56;;;;;;;7.32;6.53;;;;;;;;;;5051920;28;20127;-67
2023/06/19 00:20:22;;;;;;;5.93;5.43;;;;;;;;;;5034062;28;20033;-67
2023/06/19 00:22:51;;;;;;;5.78;5.28;;;;;;;;;;5051875;28;20366;-67
2023/06/19 00:25:17;;;;;;;5.60;5.10;;;;;;;;;;5051981;28;20045;-68
2023/06/19 00:27:42;;;;;;;5.65;5.15;;;;;;;;;;5050176;28;20095;-67
2023/06/19 00:30:08;;;;;;;5.38;5.00;;;;;;;;;;5050288;28;20041;-68
2023/06/19 00:32:46;;;;;;;5.50;5.10;;;;;;;;;;5051284;28;20083;-67
2023/06/19 00:35:12;;;;;;;5.63;5.13;;;;;;;;;;5051159;28;20467;-67
2023/06/19 00:37:37;;;;;;;5.68;5.25;;;;;;;;;;5035831;28;20153;-67
2023/06/19 00:40:03;;;;;;;5.85;5.43;;;;;;;;;;5051522;28;20040;-66
2023/06/19 00:42:29;;;;;;;5.82;5.43;;;;;;;;;;5051601;28;20041;-66
2023/06/19 00:44:55;;;;;;;6.35;5.85;;;;;;;;;;5050333;28;20808;-66
2023/06/19 00:47:21;;;;;;;11.60;7.40;;;;;;;;;;5050039;28;20041;-67
2023/06/19 00:49:46;;;;;;;6.18;5.57;;;;;;;;;;5050544;28;20477;-67
2023/06/19 00:52:11;;;;;;;5.68;5.20;;;;;;;;;;5050747;28;20070;-66
2023/06/19 00:54:37;;;;;;;5.50;5.10;;;;;;;;;;5050229;28;20449;-66
2023/06/19 00:57:02;;;;;;;5.35;4.95;;;;;;;;;;5049568;28;20112;-66
2023/06/19 00:59:28;;;;;;;5.30;4.90;;;;;;;;;;5051455;28;20029;-66
2023/06/19 01:01:54;;;;;;;5.57;5.18;;;;;;;;;;5050381;28;20045;-62
2023/06/19 01:04:19;;;;;;;6.00;5.18;;;;;;;;;;5048740;28;20045;-63
2023/06/19 01:06:57;;;;;;;14.50;9.27;;;;;;;;;;5050106;28;20101;-63
2023/06/19 01:09:25;;;;;;;8.88;6.72;;;;;;;;;;5050347;28;20879;-63
2023/06/19 01:11:54;;;;;;;9.45;7.05;;;;;;;;;;5049013;28;20033;-61
2023/06/19 01:14:28;;;;;;;6.70;6.13;;;;;;;;;;5050380;28;20530;-61
2023/06/19 01:16:54;;;;;;;5.88;5.47;;;;;;;;;;5050496;28;20037;-61
2023/06/19 01:19:21;;;;;;;4.80;4.50;;;;;;;;;;5050428;28;20047;-61
2023/06/19 01:21:47;;;;;;;5.22;4.78;;;;;;;;;;5051735;28;20769;-61
2023/06/19 01:24:14;;;;;;;6.05;4.85;;;;;;;;;;5054552;28;20041;-61
2023/06/19 01:26:40;;;;;;;5.40;4.95;;;;;;;;;;5053066;28;20068;-62
2023/06/19 01:29:05;;;;;;;5.30;4.80;;;;;;;;;;5054811;28;20134;-62
2023/06/19 01:31:33;;;;;;;5.00;4.60;;;;;;;;;;5053521;28;20045;-62
2023/06/19 01:34:00;;;;;;;5.82;5.30;;;;;;;;;;5053297;28;20061;-62
2023/06/19 01:36:25;;;;;;;5.93;5.43;;;;;;;;;;5053786;28;20048;-62
2023/06/19 01:38:51;;;;;;;6.60;5.53;;;;;;;;;;5052107;28;20036;-62
2023/06/19 01:41:17;;;;;;;5.95;5.45;;;;;;;;;;5051727;28;20047;-63
2023/06/19 01:43:42;;;;;;;5.47;5.07;;;;;;;;;;5052101;28;20091;-66
2023/06/19 01:46:08;;;;;;;4.78;4.43;;;;;;;;;;5052689;28;20069;-66
2023/06/19 01:48:38;;;;;;;4.70;4.10;;;;;;;;;;5051592;28;20486;-66
2023/06/19 01:51:05;;;;;;;4.78;4.47;;;;;;;;;;5052225;28;20094;-67
2023/06/19 01:53:31;;;;;;;4.47;4.22;;;;;;;;;;5054583;28;20033;-67
2023/06/19 01:56:02;;;;;;;4.68;4.00;;;;;;;;;;5053488;28;20033;-67
2023/06/19 01:58:28;;;;;;;5.05;4.60;;;;;;;;;;5053300;28;20386;-66
2023/06/19 02:00:54;;;;;;;6.18;4.93;;;;;;;;;;5036382;28;20039;-67
2023/06/19 02:03:20;;;;;;;5.30;4.65;;;;;;;;;;5052688;28;20093;-67
2023/06/19 02:05:48;;;;;;;4.70;4.30;;;;;;;;;;5052874;28;20037;-66
2023/06/19 02:08:13;;;;;;;9.75;7.45;;;;;;;;;;5053500;28;20037;-66
2023/06/19 02:10:40;;;;;;;13.25;9.40;;;;;;;;;;5052318;28;20086;-66
2023/06/19 02:13:05;;;;;;;8.07;6.80;;;;;;;;;;5053135;28;20041;-66
2023/06/19 02:15:30;;;;;;;5.90;5.50;;;;;;;;;;5053662;28;20024;-67
2023/06/19 02:17:56;;;;;;;6.05;5.55;;;;;;;;;;5051701;28;20384;-62
2023/06/19 02:20:24;;;;;;;6.47;5.95;;;;;;;;;;5052103;28;20566;-66
2023/06/19 02:22:49;;;;;;;9.93;6.88;;;;;;;;;;5052504;28;20041;-66
2023/06/19 02:25:15;;;;;;;5.45;4.95;;;;;;;;;;5053314;28;20041;-67
2023/06/19 02:27:42;;;;;;;4.70;4.30;;;;;;;;;;5054587;28;20060;-68
2023/06/19 02:30:08;;;;;;;4.78;4.40;;;;;;;;;;5052921;28;20091;-63
2023/06/19 02:32:33;;;;;;;4.93;4.50;;;;;;;;;;5050906;28;20051;-62
2023/06/19 02:34:59;;;;;;;5.90;5.40;;;;;;;;;;5051614;28;20033;-62
2023/06/19 02:37:24;;;;;;;5.78;5.28;;;;;;;;;;5056632;28;20041;-61
2023/06/19 02:39:49;;;;;;;5.85;5.45;;;;;;;;;;5072680;28;20119;-61
2023/06/19 02:42:15;;;;;;;5.35;4.95;;;;;;;;;;5054433;28;20040;-62
2023/06/19 02:44:45;;;;;;;5.00;4.40;;;;;;;;;;5054200;28;20127;-62
2023/06/19 02:47:10;;;;;;;5.05;4.65;;;;;;;;;;5054270;28;20060;-62
2023/06/19 02:49:37;;;;;;;5.40;4.90;;;;;;;;;;5072305;28;20068;-63
2023/06/19 02:52:03;;;;;;;6.22;5.60;;;;;;;;;;5072187;28;20102;-63
2023/06/19 02:54:29;;;;;;;6.20;5.68;;;;;;;;;;5071492;28;20068;-61
2023/06/19 02:56:55;;;;;;;6.00;5.60;;;;;;;;;;5053846;28;20447;-61
2023/06/19 02:59:21;;;;;;;6.32;5.80;;;;;;;;;;5054474;28;20048;-65
2023/06/19 03:01:51;;;;;;;5.85;5.03;;;;;;;;;;5087427;28;20047;-66
2023/06/19 03:04:17;;;;;;;5.45;5.03;;;;;;;;;;5093602;28;20063;-65
2023/06/19 03:06:42;;;;;;;7.40;5.68;;;;;;;;;;5093328;28;20075;-66
2023/06/19 03:09:12;;;;;;;5.53;5.13;;;;;;;;;;5075017;28;20062;-66
2023/06/19 03:11:41;;;;;;;6.05;5.50;;;;;;;;;;5074998;28;20028;-67
2023/06/19 03:14:07;;;;;;;5.53;5.13;;;;;;;;;;5092540;28;20028;-62
2023/06/19 03:16:33;;;;;;;8.32;6.65;;;;;;;;;;5073686;28;20040;-61
2023/06/19 03:18:59;;;;;;;8.98;7.45;;;;;;;;;;5073545;28;20113;-62
2023/06/19 03:21:25;;;;;;;7.78;6.97;;;;;;;;;;5089142;28;20475;-68
2023/06/19 03:23:51;;;;;;;7.40;6.40;;;;;;;;;;5074240;28;20048;-68
2023/06/19 03:26:19;;;;;;;6.05;5.63;;;;;;;;;;5056096;28;20051;-69
2023/06/19 03:28:46;;;;;;;5.10;4.80;;;;;;;;;;5072279;28;20439;-69
2023/06/19 03:31:11;;;;;;;4.68;4.38;;;;;;;;;;5085258;28;20032;-67
2023/06/19 03:33:37;;;;;;;4.43;4.13;;;;;;;;;;5072365;28;20092;-66
2023/06/19 03:36:04;;;;;;;5.20;4.15;;;;;;;;;;5062920;28;20059;-67
2023/06/19 03:38:39;;;;;;;5.35;4.88;;;;;;;;;;5070531;28;20090;-67
2023/06/19 03:41:05;;;;;;;5.05;4.65;;;;;;;;;;5058436;28;20063;-62
2023/06/19 03:43:31;;;;;;;6.47;5.55;;;;;;;;;;5069768;28;20076;-61
2023/06/19 03:45:56;;;;;;;5.18;4.70;;;;;;;;;;5069848;28;20051;-61
2023/06/19 03:48:21;;;;;;;4.72;4.43;;;;;;;;;;5069747;28;20103;-61
2023/06/19 03:50:47;;;;;;;5.00;4.68;;;;;;;;;;5073305;28;20560;-62
2023/06/19 03:53:12;;;;;;;6.00;5.40;;;;;;;;;;5090887;28;20040;-62
2023/06/19 03:55:37;;;;;;;5.28;4.88;;;;;;;;;;5090817;28;20024;-62
2023/06/19 03:58:03;;;;;;;5.10;4.78;;;;;;;;;;5073158;28;20462;-63
2023/06/19 04:00:28;;;;;;;5.28;4.82;;;;;;;;;;5068813;28;20491;-62
2023/06/19 04:02:53;;;;;;;5.25;4.85;;;;;;;;;;5069612;28;20043;-67
2023/06/19 04:05:19;;;;;;;6.25;5.75;;;;;;;;;;5069583;28;20040;-67
2023/06/19 04:07:45;;;;;;;7.93;6.75;;;;;;;;;;5049835;28;20033;-61
2023/06/19 04:10:13;;;;;;;6.78;6.18;;;;;;;;;;5070008;28;20047;-60
2023/06/19 04:12:40;;;;;;;5.75;5.28;;;;;;;;;;5072135;28;20032;-66
2023/06/19 04:15:06;;;;;;;5.22;4.85;;;;;;;;;;5057598;28;20033;-61
2023/06/19 04:17:32;;;;;;;5.95;4.80;;;;;;;;;;5053046;28;20395;-65
2023/06/19 04:19:57;;;;;;;8.00;5.40;;;;;;;;;;5052625;28;20041;-62
2023/06/19 04:22:23;;;;;;;5.57;5.13;;;;;;;;;;5070699;28;20488;-62
2023/06/19 04:24:50;;;;;;;6.13;5.22;;;;;;;;;;5053745;28;20050;-67
2023/06/19 04:27:16;;;;;;;5.85;5.35;;;;;;;;;;5054305;28;20037;-65
2023/06/19 04:29:41;;;;;;;6.22;5.72;;;;;;;;;;5070524;28;20039;-65
2023/06/19 04:32:11;;;;;;;8.43;6.03;;;;;;;;;;5052238;28;20124;-64
2023/06/19 04:34:42;;;;;;;7.15;6.07;;;;;;;;;;5070586;28;20033;-67
2023/06/19 04:37:07;;;;;;;6.25;5.75;;;;;;;;;;5071731;28;20048;-69
2023/06/19 04:39:39;;;;;;;6.03;5.45;;;;;;;;;;5070370;28;20041;-70
2023/06/19 04:42:04;;;;;;;6.15;5.60;;;;;;;;;;5068264;28;20044;-70
2023/06/19 04:44:33;;;;;;;5.85;5.22;;;;;;;;;;5060080;28;20038;-62
2023/06/19 04:47:00;;;;;;;5.25;4.85;;;;;;;;;;5069972;28;20055;-62
2023/06/19 04:49:32;;;;;;;5.80;5.20;;;;;;;;;;5068576;28;20070;-62
2023/06/19 04:51:58;;;;;;;5.70;5.25;;;;;;;;;;5068930;28;20040;-62
2023/06/19 04:54:24;;;;;;;6.15;5.63;;;;;;;;;;5068975;28;20392;-62
2023/06/19 04:56:49;;;;;;;6.97;6.30;;;;;;;;;;5071301;28;20025;-62
2023/06/19 04:59:18;;;;;;;5.60;5.13;;;;;;;;;;5073489;28;20114;-62
2023/06/19 05:01:43;;;;;;;7.15;6.55;;;;;;;;;;5073988;28;20034;-62
2023/06/19 05:04:10;;;;;;;8.90;6.70;;;;;;;;;;5073912;28;20468;-62
2023/06/19 05:06:36;;;;;;;6.63;6.03;;;;;;;;;;5073878;28;20037;-62
2023/06/19 05:09:01;;;;;;;7.25;5.75;;;;;;;;;;5073592;28;20700;-62
2023/06/19 05:11:26;;;;;;;7.70;5.95;;;;;;;;;;5072488;28;20036;-62
2023/06/19 05:13:52;;;;;;;8.45;7.07;;;;;;;;;;5074627;28;20098;-62
2023/06/19 05:16:19;;;;;;;7.47;6.30;;;;;;;;;;5076358;28;20041;-63
2023/06/19 05:18:45;;;;;;;6.90;6.15;;;;;;;;;;5074043;28;20076;-63
2023/06/19 05:21:10;;;;;;;8.15;6.13;;;;;;;;;;5074229;28;20072;-63
2023/06/19 05:23:40;;;;;;;7.30;5.88;;;;;;;;;;5073682;28;20025;-63
2023/06/19 05:26:06;;;;;;;8.55;7.30;;;;;;;;;;5070470;28;20055;-64
2023/06/19 05:28:31;;;;;;;8.02;7.00;;;;;;;;;;5072137;28;20059;-64
2023/06/19 05:30:57;;;;;;;9.35;7.20;;;;;;;;;;5073034;28;20029;-64
2023/06/19 05:33:23;;;;;;;7.95;6.45;;;;;;;;;;5041069;28;20443;-64
2023/06/19 05:35:52;;;;;;;9.43;7.10;;;;;;;;;;5081812;28;20079;-64
2023/06/19 05:38:18;;;;;;;7.22;6.50;;;;;;;;;;5071470;28;20119;-64
2023/06/19 05:40:43;;;;;;;10.05;7.38;;;;;;;;;;5072066;28;20127;-62
2023/06/19 05:43:08;;;;;;;9.35;8.00;;;;;;;;;;5054125;28;20135;-63
2023/06/19 05:45:34;;;;;;;8.85;8.07;;;;;;;;;;5072887;28;20076;-63
2023/06/19 05:47:59;;;;;;;10.77;8.23;;;;;;;;;;5070377;28;20048;-63
2023/06/19 05:50:25;;;;;;;8.70;7.80;;;;;;;;;;5072035;28;20037;-62
2023/06/19 05:52:50;;;;;;;9.30;8.13;;;;;;;;;;5072154;28;20537;-62
2023/06/19 05:55:15;;;;;;;9.13;8.18;;;;;;;;;;5070627;28;20571;-62
2023/06/19 05:57:40;;;;;;;9.95;8.60;;;;;;;;;;5071544;28;20049;-62
2023/06/19 06:00:06;;;;;;;9.23;8.13;;;;;;;;;;5070437;28;20044;-62
2023/06/19 06:02:38;;;;;;;9.23;7.82;;;;;;;;;;5070483;28;20040;-62
2023/06/19 06:05:03;;;;;;;9.75;8.50;;;;;;;;;;5068922;28;20047;-62
2023/06/19 06:07:30;;;;;;;13.43;8.27;;;;;;;;;;5070064;28;20046;-62
2023/06/19 06:09:55;;;;;;;10.02;8.38;;;;;;;;;;5068682;28;20132;-62
2023/06/19 06:12:20;;;;;;;9.15;8.25;;;;;;;;;;5070738;28;20123;-62
2023/06/19 06:14:46;;;;;;;9.20;7.97;;;;;;;;;;5070860;28;20032;-62
2023/06/19 06:17:11;;;;;;;7.90;7.10;;;;;;;;;;5069344;28;20489;-62
2023/06/19 06:19:37;;;;;;;9.65;7.30;;;;;;;;;;5069571;28;20047;-62
2023/06/19 06:22:02;;;;;;;8.27;7.38;;;;;;;;;;5071771;28;20042;-62
2023/06/19 06:28:03;;;;;;;7.25;6.35;;;;;;;;;;5075684;28;20090;-62
2023/06/19 06:34:04;;;;;;;7.13;6.53;;;;;;;;;;5075553;28;20134;-62
2023/06/19 06:44:19;;;;;;;7.00;6.40;;;;;;;;;;5095667;28;20032;-63
2023/06/19 06:50:20;;;;;;;6.22;5.72;;;;;;;;;;5095321;28;20065;-62
2023/06/19 06:56:21;;;;;;;6.50;5.90;;;;;;;;;;5095403;28;20448;-68
2023/06/19 07:02:21;;;;;;;6.25;5.65;;;;;;;;;;5095299;28;20129;-69
2023/06/19 07:08:20;;;;;;;8.30;5.85;;;;;;;;;;5095133;28;20047;-62
2023/06/19 07:14:21;;;;;;;5.97;5.40;;;;;;;;;;5095055;28;20530;-68
2023/06/19 07:20:21;;;;;;;5.68;5.13;;;;;;;;;;5094314;28;20126;-68
2023/06/19 07:26:21;;;;;;;4.88;4.55;;;;;;;;;;5094764;28;20592;-68
2023/06/19 07:32:22;;;;;;;4.85;4.25;;;;;;;;;;5094433;28;20039;-68
2023/06/19 07:38:23;;;;;;;6.78;5.40;;;;;;;;;;5094567;28;20031;-68
2023/06/19 07:48:52;;;;;;;5.70;5.30;;;;;;;;;;5094462;28;20039;-68
2023/06/19 07:54:53;;;;;;;4.38;3.97;;;;;;;;;;5094091;28;20446;-68
2023/06/19 08:00:54;;;;;;;7.75;4.68;;;;;;;;;;5094225;28;20486;-68
2023/06/19 08:06:54;;;;;;;3.50;3.30;;;;;;;;;;5093900;28;20078;-68
2023/06/19 08:12:54;;;;;;;4.20;3.80;;;;;;;;;;5094078;28;20115;-68
2023/06/19 08:18:54;;;;;;;3.92;3.63;;;;;;;;;;5094033;28;20074;-68
2023/06/19 08:24:54;;;;;;;4.05;3.75;;;;;;;;;;5093940;28;20027;-68
2023/06/19 08:30:54;;;;;;;5.35;4.95;;;;;;;;;;5093678;28;20034;-68
2023/06/19 08:36:54;;;;;;;4.13;3.75;;;;;;;;;;5098071;28;20111;-69
2023/06/19 08:42:55;;;;;;;5.68;5.22;;;;;;;;;;5097783;28;20047;-68
2023/06/19 08:49:10;;;;;;;4.25;3.95;;;;;;;;;;5097857;28;20561;-68
2023/06/19 08:55:11;;;;;;;5.32;4.82;;;;;;;;;;5097741;28;20668;-68
2023/06/19 09:01:13;;;;;;;6.35;5.05;;;;;;;;;;5097603;28;20505;-68
2023/06/19 09:07:14;;;;;;;5.35;4.78;;;;;;;;;;5097493;28;20103;-68
2023/06/19 09:13:20;;;;;;;4.68;4.38;;;;;;;;;;5097111;28;20568;-68
2023/06/19 09:19:20;;;;;;;4.20;3.90;;;;;;;;;;5096998;28;20023;-69
2023/06/19 09:25:23;;;;;;;5.90;5.18;;;;;;;;;;5096901;28;20030;-69
2023/06/19 09:31:33;;;;;;;4.50;4.15;;;;;;;;;;5106488;22;20114;-62
2023/06/19 09:33:59;;;;;;;4.47;4.13;;;;;;;;;;5096961;28;20047;-62
2023/06/19 09:36:26;;;;;;;5.18;4.78;;;;;;;;;;5095442;28;20115;-62
2023/06/19 09:38:55;;;;;;;5.68;5.18;;;;;;;;;;5096842;28;20495;-62
2023/06/19 09:41:21;;;;;;;5.78;4.82;;;;;;;;;;5096888;28;20040;-62
2023/06/19 09:43:46;;;;;;;5.28;4.85;;;;;;;;;;5096279;28;20032;-62
2023/06/19 09:46:14;;;;;;;7.18;5.50;;;;;;;;;;5079083;28;20107;-63
2023/06/19 09:48:44;;;;;;;5.80;5.30;;;;;;;;;;5096444;28;20535;-62
2023/06/19 09:51:20;;;;;;;4.87;4.43;;;;;;;;;;5096623;28;20450;-62
2023/06/19 09:53:46;;;;;;;5.50;5.15;;;;;;;;;;5078785;28;20292;-62
2023/06/19 09:56:13;;;;;;;4.80;4.40;;;;;;;;;;5096318;28;20038;-62
2023/06/19 09:58:39;;;;;;;4.43;4.00;;;;;;;;;;5078468;28;20071;-62
2023/06/19 10:01:04;;;;;;;4.72;4.05;;;;;;;;;;5096514;28;20036;-62
2023/06/19 10:03:30;;;;;;;4.45;4.15;;;;;;;;;;5096147;28;20463;-62
2023/06/19 10:05:59;;;;;;;4.93;4.43;;;;;;;;;;5096126;28;20036;-62
2023/06/19 10:08:30;;;;;;;4.35;4.05;;;;;;;;;;5096093;28;20042;-62
2023/06/19 10:10:55;;;;;;;;;;;;;;;;;;5096626;28;20493;-62
2023/06/19 10:13:21;;;;;;;4.67;4.30;;;;;;;;;;5078201;28;19904;-62
2023/06/19 10:15:47;;;;;;;4.10;3.80;;;;;;;;;;5078465;28;20281;-62
2023/06/19 10:18:13;;;;;;;4.15;3.85;;;;;;;;;;5096440;28;20550;-62
2023/06/19 10:20:39;;;;;;;4.63;4.20;;;;;;;;;;5095811;28;20071;-62
2023/06/19 10:23:06;;;;;;;4.60;4.25;;;;;;;;;;5060895;28;20085;-62
2023/06/19 10:25:32;;;;;;;3.97;3.78;;;;;;;;;;5095743;28;20032;-62
2023/06/19 10:27:58;;;;;;;4.30;4.05;;;;;;;;;;5077524;28;20036;-62
2023/06/19 10:30:24;;;;;;;4.43;4.07;;;;;;;;;;5095643;28;20036;-62
2023/06/19 10:32:49;;;;;;;4.32;4.03;;;;;;;;;;5095854;28;20089;-62
2023/06/19 10:35:16;;;;;;;5.05;4.65;;;;;;;;;;5095533;28;20093;-62
2023/06/19 10:37:42;;;;;;;4.70;4.40;;;;;;;;;;5094241;28;20368;-62
2023/06/19 10:40:09;;;;;;;5.30;4.63;;;;;;;;;;5095420;28;20093;-62
2023/06/19 10:42:36;;;;;;;4.85;4.47;;;;;;;;;;5095690;28;20079;-62
2023/06/19 10:45:08;;;;;;;4.93;4.50;;;;;;;;;;5077209;28;20039;-62
2023/06/19 10:47:34;;;;;;;5.22;4.50;;;;;;;;;;5095810;28;20105;-62
2023/06/19 10:49:59;;;;;;;4.47;4.18;;;;;;;;;;5095130;28;20479;-62
2023/06/19 10:52:24;;;;;;;4.53;4.13;;;;;;;;;;5077056;28;20028;-62
2023/06/19 10:54:55;;;;;;;4.57;4.28;;;;;;;;;;5076278;28;20391;-62
2023/06/19 10:57:28;;;;;;;4.82;4.43;;;;;;;;;;5095387;28;20036;-62
2023/06/19 10:59:53;;;;;;;4.65;4.35;;;;;;;;;;5095030;28;20536;-62
2023/06/19 11:02:18;;;;;;;4.75;4.38;;;;;;;;;;5076743;28;20036;-62
2023/06/19 11:04:44;;;;;;;4.38;4.07;;;;;;;;;;5076814;28;20031;-62
2023/06/19 11:07:09;;;;;;;4.07;3.78;;;;;;;;;;5094880;28;20044;-62
2023/06/19 11:09:35;;;;;;;3.80;3.60;;;;;;;;;;5094745;28;20383;-62
2023/06/19 11:12:01;;;;;;;4.20;4.00;;;;;;;;;;5095083;28;20020;-62
2023/06/19 11:14:29;;;;;;;4.88;4.55;;;;;;;;;;5094730;28;20510;-62
2023/06/19 11:16:54;;;;;;;4.25;3.85;;;;;;;;;;5077223;28;20081;-62
2023/06/19 11:19:21;;;;;;;4.25;3.95;;;;;;;;;;5076513;28;20036;-62
2023/06/19 11:21:47;;;;;;;4.50;4.20;;;;;;;;;;5094610;28;20129;-62
2023/06/19 11:24:13;;;;;;;5.05;4.65;;;;;;;;;;5094844;28;20046;-62
2023/06/19 11:26:39;;;;;;;4.50;4.10;;;;;;;;;;5094566;28;20036;-62
2023/06/19 11:29:15;;;;;;;4.22;3.88;;;;;;;;;;5093275;28;20032;-62
2023/06/19 11:31:40;;;;;;;4.70;4.30;;;;;;;;;;5092967;28;20063;-62
2023/06/19 11:34:06;;;;;;;3.92;3.65;;;;;;;;;;5094463;28;20480;-62
2023/06/19 11:36:31;;;;;;;4.22;3.92;;;;;;;;;;5094647;28;20115;-62
2023/06/19 11:38:56;;;;;;;3.83;3.55;;;;;;;;;;5094299;28;20028;-63
2023/06/19 11:41:26;;;;;;;4.22;3.97;;;;;;;;;;5094235;28;20065;-62
2023/06/19 11:43:57;;;;;;;4.03;3.78;;;;;;;;;;5093561;28;20387;-62
2023/06/19 11:46:27;;;;;;;3.83;3.58;;;;;;;;;;5094217;28;20076;-62
2023/06/19 11:48:53;;;;;;;;;;;;;;;;;;5094623;28;20032;-62
2023/06/19 11:51:18;;;;;;;4.10;3.80;;;;;;;;;;5075924;28;19912;-62
2023/06/19 11:53:43;;;;;;;4.40;4.03;;;;;;;;;;5092882;28;20130;-69
2023/06/19 11:56:09;;;;;;;4.35;4.05;;;;;;;;;;5094081;28;20490;-69
2023/06/19 11:58:34;;;;;;;4.30;3.92;;;;;;;;;;5092778;28;20086;-70
2023/06/19 12:01:08;;;;;;;4.43;4.20;;;;;;;;;;5079429;22;20074;-64
2023/06/19 12:03:33;;;;;;;4.55;4.25;;;;;;;;;;5012402;28;20057;-62
2023/06/19 12:05:58;;;;;;;4.57;4.28;;;;;;;;;;5013973;28;20037;-69
2023/06/19 12:08:24;;;;;;;4.80;4.50;;;;;;;;;;5029203;28;20034;-69
2023/06/19 12:10:49;;;;;;;4.53;4.15;;;;;;;;;;5013850;28;20038;-69
2023/06/19 12:13:14;;;;;;;5.75;4.10;;;;;;;;;;5013935;28;20064;-69
2023/06/19 12:15:40;;;;;;;4.30;4.10;;;;;;;;;;5014093;28;20081;-69
2023/06/19 12:18:06;;;;;;;4.22;3.92;;;;;;;;;;5013841;28;20481;-69
2023/06/19 12:20:32;;;;;;;4.22;4.03;;;;;;;;;;5013857;28;20074;-69
2023/06/19 12:22:57;;;;;;;4.90;4.50;;;;;;;;;;5029254;28;20132;-69
2023/06/19 12:25:22;;;;;;;5.93;3.70;;;;;;;;;;5013953;28;20034;-69
2023/06/19 12:27:50;;;;;;;3.63;3.45;;;;;;;;;;5013762;28;20500;-69
2023/06/19 12:30:15;;;;;;;4.68;4.38;;;;;;;;;;5028863;28;20045;-69
2023/06/19 12:32:40;;;;;;;4.68;4.15;;;;;;;;;;5013697;28;20038;-69
2023/06/19 12:35:07;;;;;;;3.63;3.40;;;;;;;;;;5013690;28;20142;-69
2023/06/19 12:37:32;;;;;;;3.65;3.45;;;;;;;;;;5029127;28;20121;-69
2023/06/19 12:39:57;;;;;;;3.97;3.75;;;;;;;;;;5013647;28;20137;-69
2023/06/19 12:42:22;;;;;;;4.30;3.80;;;;;;;;;;5013646;28;20117;-69
2023/06/19 12:44:48;;;;;;;4.13;3.92;;;;;;;;;;5028830;28;20060;-69
2023/06/19 12:47:13;;;;;;;4.13;3.85;;;;;;;;;;5013599;28;20033;-69
2023/06/19 12:49:39;;;;;;;4.10;3.90;;;;;;;;;;5013545;28;20033;-69
2023/06/19 12:52:04;;;;;;;3.35;3.15;;;;;;;;;;5013641;28;20481;-69
2023/06/19 12:54:29;;;;;;;3.45;3.25;;;;;;;;;;5013514;28;20037;-69
2023/06/19 12:56:55;;;;;;;3.92;3.42;;;;;;;;;;5028715;28;20049;-69
2023/06/19 12:59:20;;;;;;;4.20;3.85;;;;;;;;;;5013473;28;20101;-69
2023/06/19 13:01:46;;;;;;;3.97;3.67;;;;;;;;;;5013193;28;20508;-69
2023/06/19 13:04:12;;;;;;;4.00;3.78;;;;;;;;;;5013186;28;20041;-69
2023/06/19 13:06:38;;;;;;;3.97;3.78;;;;;;;;;;5013091;28;20096;-69
2023/06/19 13:09:05;;;;;;;3.97;3.67;;;;;;;;;;5013051;28;20042;-69
2023/06/19 13:11:31;;;;;;;4.70;4.30;;;;;;;;;;4994949;28;20481;-69
2023/06/19 13:13:56;;;;;;;4.78;4.32;;;;;;;;;;5012047;28;20038;-70
2023/06/19 13:16:21;;;;;;;4.60;4.30;;;;;;;;;;5012102;28;20041;-69
2023/06/19 13:18:47;;;;;;;4.75;4.38;;;;;;;;;;5015373;28;20030;-69
2023/06/19 13:21:12;;;;;;;4.68;4.38;;;;;;;;;;5016732;28;20041;-69
2023/06/19 13:23:38;;;;;;;4.32;4.10;;;;;;;;;;5031657;28;20109;-63
2023/06/19 13:26:07;;;;;;;4.68;4.28;;;;;;;;;;5016585;28;20033;-63
2023/06/19 13:28:32;;;;;;;4.70;4.15;;;;;;;;;;5016603;28;20046;-63
2023/06/19 13:30:58;;;;;;;4.10;3.90;;;;;;;;;;5016334;28;20095;-63
2023/06/19 13:33:23;;;;;;;3.17;3.08;;;;;;;;;;5016278;28;20109;-64
2023/06/19 13:35:49;;;;;;;3.50;3.30;;;;;;;;;;5015811;28;20034;-63
2023/06/19 13:38:15;;;;;;;3.40;3.20;;;;;;;;;;5016105;28;20042;-63
2023/06/19 13:40:41;;;;;;;3.28;3.08;;;;;;;;;;5015960;28;20076;-63
2023/06/19 13:43:07;;;;;;;3.47;3.28;;;;;;;;;;5016102;28;20050;-63
2023/06/19 13:45:33;;;;;;;4.22;3.50;;;;;;;;;;5015925;28;20046;-63
2023/06/19 13:47:58;;;;;;;3.90;3.60;;;;;;;;;;5015906;28;20042;-62
2023/06/19 13:50:25;;;;;;;4.47;3.60;;;;;;;;;;5016512;28;20050;-62
2023/06/19 13:52:50;;;;;;;3.80;3.60;;;;;;;;;;5019632;28;20173;-62
2023/06/19 13:55:17;;;;;;;5.25;4.43;;;;;;;;;;4995673;28;20069;-62
2023/06/19 13:57:43;;;;;;;4.47;4.10;;;;;;;;;;5011172;28;20038;-62
2023/06/19 14:00:10;;;;;;;5.63;5.13;;;;;;;;;;4996046;28;20043;-65
2023/06/19 14:02:38;;;;;;;4.72;4.32;;;;;;;;;;4995724;28;20577;-62
2023/06/19 14:05:07;;;;;;;4.28;3.97;;;;;;;;;;4995827;28;20125;-63
2023/06/19 14:07:33;;;;;;;4.55;4.15;;;;;;;;;;4995794;28;20409;-62
2023/06/19 14:09:59;;;;;;;4.38;4.00;;;;;;;;;;4995606;28;20046;-62
2023/06/19 14:12:24;;;;;;;4.60;4.20;;;;;;;;;;5010424;28;20378;-67
2023/06/19 14:14:49;;;;;;;4.00;3.70;;;;;;;;;;5011216;28;20351;-62
2023/06/19 14:17:15;;;;;;;4.70;4.30;;;;;;;;;;4995501;28;20030;-66
2023/06/19 14:19:40;;;;;;;4.40;3.95;;;;;;;;;;4993338;28;20486;-62
2023/06/19 14:22:06;;;;;;;4.03;3.72;;;;;;;;;;4994821;28;20129;-68
2023/06/19 14:24:31;;;;;;;4.10;3.90;;;;;;;;;;4995491;28;20121;-62
2023/06/19 14:26:56;;;;;;;4.90;4.03;;;;;;;;;;4995225;28;20038;-62
2023/06/19 14:29:23;;;;;;;4.20;3.80;;;;;;;;;;4977294;28;20045;-67
2023/06/19 14:31:50;;;;;;;4.68;4.30;;;;;;;;;;4977384;28;20030;-68
2023/06/19 14:34:15;;;;;;;4.10;3.88;;;;;;;;;;4994233;28;20474;-69
2023/06/19 14:36:41;;;;;;;4.30;4.10;;;;;;;;;;4994759;28;20034;-68
2023/06/19 14:39:06;;;;;;;4.82;4.53;;;;;;;;;;4994696;28;20181;-63
2023/06/19 14:41:32;;;;;;;4.53;4.22;;;;;;;;;;4994380;28;20505;-62
2023/06/19 14:43:58;;;;;;;4.43;4.13;;;;;;;;;;4993263;28;20064;-62
2023/06/19 14:46:23;;;;;;;5.05;4.53;;;;;;;;;;4992913;28;20058;-62
2023/06/19 14:48:48;;;;;;;4.20;4.00;;;;;;;;;;4993998;28;20047;-62
2023/06/19 14:51:13;;;;;;;4.95;4.35;;;;;;;;;;4994246;28;20033;-62
2023/06/19 14:53:39;;;;;;;4.35;4.05;;;;;;;;;;4994520;28;20039;-62
2023/06/19 14:56:04;;;;;;;4.57;4.20;;;;;;;;;;4977069;28;20026;-62
2023/06/19 14:58:29;;;;;;;4.30;4.00;;;;;;;;;;4994641;28;20122;-62
2023/06/19 15:00:54;;;;;;;4.50;4.10;;;;;;;;;;4994542;28;20062;-62
2023/06/19 15:03:20;;;;;;;4.65;4.18;;;;;;;;;;5029786;28;20052;-62
2023/06/19 15:05:45;;;;;;;4.00;3.80;;;;;;;;;;5034407;28;20045;-62
2023/06/19 15:08:10;;;;;;;4.72;4.43;;;;;;;;;;5034222;28;20451;-62
2023/06/19 15:10:36;;;;;;;4.70;4.30;;;;;;;;;;5033263;28;20045;-62
2023/06/19 15:13:01;;;;;;;4.40;4.10;;;;;;;;;;5017092;28;20060;-62
2023/06/19 15:15:27;;;;;;;4.32;4.03;;;;;;;;;;5000566;28;20083;-62
2023/06/19 15:17:52;;;;;;;4.30;3.80;;;;;;;;;;5034586;28;20045;-62
2023/06/19 15:20:19;;;;;;;4.47;4.18;;;;;;;;;;5033202;28;20045;-62
2023/06/19 15:22:45;;;;;;;4.30;4.00;;;;;;;;;;5034536;28;20429;-62
2023/06/19 15:25:10;;;;;;;4.25;4.00;;;;;;;;;;5034420;28;20119;-62
2023/06/19 15:27:35;;;;;;;4.53;4.22;;;;;;;;;;5034463;28;20045;-62
2023/06/19 15:30:02;;;;;;;4.20;3.95;;;;;;;;;;5034226;28;20037;-62
2023/06/19 15:32:27;;;;;;;4.75;4.45;;;;;;;;;;5034529;28;20033;-62
2023/06/19 15:34:52;;;;;;;4.45;4.20;;;;;;;;;;5034384;28;20086;-62
2023/06/19 15:37:18;;;;;;;4.72;4.28;;;;;;;;;;5034246;28;20451;-62
2023/06/19 15:39:43;;;;;;;4.53;4.22;;;;;;;;;;5034313;28;20033;-62
2023/06/19 15:42:08;;;;;;;4.65;4.22;;;;;;;;;;5033869;28;20033;-62
2023/06/19 15:44:34;;;;;;;4.93;4.63;;;;;;;;;;5034133;28;20068;-62
2023/06/19 15:46:59;;;;;;;4.15;3.95;;;;;;;;;;5016321;28;20033;-62
2023/06/19 15:49:24;;;;;;;4.03;3.72;;;;;;;;;;5032883;28;20128;-62
2023/06/19 15:51:50;;;;;;;4.82;4.20;;;;;;;;;;5033877;28;20045;-62
2023/06/19 15:54:15;;;;;;;4.22;3.92;;;;;;;;;;5033976;28;20037;-62
2023/06/19 15:56:42;;;;;;;4.63;4.30;;;;;;;;;;5033916;28;20045;-62
2023/06/19 15:59:07;;;;;;;4.60;4.30;;;;;;;;;;5016248;28;20042;-62
2023/06/19 16:01:32;;;;;;;4.13;3.85;;;;;;;;;;5033722;28;20095;-62
2023/06/19 16:03:58;;;;;;;4.60;4.18;;;;;;;;;;5033851;28;20041;-62
2023/06/19 16:06:23;;;;;;;4.70;4.40;;;;;;;;;;5033771;28;20095;-62
2023/06/19 16:08:51;;;;;;;5.00;4.60;;;;;;;;;;5032108;28;20036;-62
2023/06/19 16:11:17;;;;;;;4.40;4.20;;;;;;;;;;5033480;28;20076;-62
2023/06/19 16:13:43;;;;;;;4.50;4.10;;;;;;;;;;5033464;28;20033;-63
2023/06/19 16:16:08;;;;;;;5.78;4.28;;;;;;;;;;5016461;28;20037;-62
2023/06/19 16:18:33;;;;;;;5.00;4.60;;;;;;;;;;5032019;28;20041;-62
2023/06/19 16:20:59;;;;;;;4.53;4.32;;;;;;;;;;5033443;28;20036;-62
2023/06/19 16:23:24;;;;;;;4.75;4.45;;;;;;;;;;5033596;28;20091;-62
2023/06/19 16:25:50;;;;;;;4.63;4.25;;;;;;;;;;5032308;28;20420;-65
2023/06/19 16:28:15;;;;;;;4.50;4.10;;;;;;;;;;5021069;28;20037;-65
2023/06/19 16:30:41;;;;;;;4.53;4.30;;;;;;;;;;4994873;28;20038;-65
2023/06/19 16:33:06;;;;;;;4.70;4.40;;;;;;;;;;5010433;28;20061;-66